sensor_id;sensor_type;location;lat;lon;timestamp;temperature;humidity
20341;DHT22;10328;50.042;8.238;2022-07-04T00:00:05;19.30;99.90
20341;DHT22;10328;50.042;8.238;2022-07-04T00:02:32;19.20;99.90
20341;DHT22;10328;50.042;8.238;2022-07-04T00:04:59;19.10;99.90
20341;DHT22;10328;50.042;8.238;2022-07-04T00:07:26;19.00;99.90
20341;DHT22;10328;50.042;8.238;2022-07-04T00:09:53;19.10;99.90
20341;DHT22;10328;50.042;8.238;2022-07-04T00:12:19;19.00;99.90
20341;DHT22;10328;50.042;8.238;2022-07-04T00:14:46;19.10;99.90
20341;DHT22;10328;50.042;8.238;2022-07-04T00:17:13;19.10;99.90
20341;DHT22;10328;50.042;8.238;2022-07-04T00:19:40;19.00;99.90
20341;DHT22;10328;50.042;8.238;2022-07-04T00:22:07;18.90;99.90
20341;DHT22;10328;50.042;8.238;2022-07-04T00:24:33;18.80;99.90
20341;DHT22;10328;50.042;8.238;2022-07-04T00:27:00;18.90;99.90
20341;DHT22;10328;50.042;8.238;2022-07-04T00:29:26;18.90;99.90
20341;DHT22;10328;50.042;8.238;2022-07-04T00:31:53;18.80;99.90
20341;DHT22;10328;50.042;8.238;2022-07-04T00:34:20;18.70;99.90
20341;DHT22;10328;50.042;8.238;2022-07-04T00:36:47;18.80;99.90
20341;DHT22;10328;50.042;8.238;2022-07-04T00:39:14;18.80;99.90
20341;DHT22;10328;50.042;8.238;2022-07-04T00:41:40;18.70;99.90
20341;DHT22;10328;50.042;8.238;2022-07-04T00:44:09;18.70;99.90
20341;DHT22;10328;50.042;8.238;2022-07-04T00:46:40;18.60;99.90
20341;DHT22;10328;50.042;8.238;2022-07-04T00:49:07;18.30;99.90
20341;DHT22;10328;50.042;8.238;2022-07-04T00:51:34;18.40;99.90
20341;DHT22;10328;50.042;8.238;2022-07-04T00:54:00;18.50;99.90
20341;DHT22;10328;50.042;8.238;2022-07-04T00:56:27;18.40;99.90
20341;DHT22;10328;50.042;8.238;2022-07-04T00:58:54;18.40;99.90
20341;DHT22;10328;50.042;8.238;2022-07-04T01:01:21;18.40;99.90
20341;DHT22;10328;50.042;8.238;2022-07-04T01:03:48;18.40;99.90
20341;DHT22;10328;50.042;8.238;2022-07-04T01:06:16;18.30;99.90
20341;DHT22;10328;50.042;8.238;2022-07-04T01:08:45;18.30;99.90
20341;DHT22;10328;50.042;8.238;2022-07-04T01:11:12;18.20;99.90
20341;DHT22;10328;50.042;8.238;2022-07-04T01:13:40;18.10;99.90
20341;DHT22;10328;50.042;8.238;2022-07-04T01:16:08;17.90;99.90
20341;DHT22;10328;50.042;8.238;2022-07-04T01:18:36;17.80;99.90
20341;DHT22;10328;50.042;8.238;2022-07-04T01:21:03;17.80;99.90
20341;DHT22;10328;50.042;8.238;2022-07-04T01:23:30;17.70;99.90
20341;DHT22;10328;50.042;8.238;2022-07-04T01:25:57;17.70;99.90
20341;DHT22;10328;50.042;8.238;2022-07-04T01:28:25;17.70;99.90
20341;DHT22;10328;50.042;8.238;2022-07-04T01:30:52;17.60;99.90
20341;DHT22;10328;50.042;8.238;2022-07-04T01:33:18;17.50;99.90
20341;DHT22;10328;50.042;8.238;2022-07-04T01:35:46;17.40;99.90
20341;DHT22;10328;50.042;8.238;2022-07-04T01:38:13;17.30;99.90
20341;DHT22;10328;50.042;8.238;2022-07-04T01:40:40;17.30;99.90
20341;DHT22;10328;50.042;8.238;2022-07-04T01:43:07;17.20;99.90
20341;DHT22;10328;50.042;8.238;2022-07-04T01:45:34;17.10;99.90
20341;DHT22;10328;50.042;8.238;2022-07-04T01:48:05;17.00;99.90
20341;DHT22;10328;50.042;8.238;2022-07-04T01:50:33;17.00;99.90
20341;DHT22;10328;50.042;8.238;2022-07-04T01:53:00;17.00;99.90
20341;DHT22;10328;50.042;8.238;2022-07-04T01:55:28;17.00;99.90
20341;DHT22;10328;50.042;8.238;2022-07-04T01:57:55;17.00;99.90
20341;DHT22;10328;50.042;8.238;2022-07-04T02:00:23;16.80;99.90
20341;DHT22;10328;50.042;8.238;2022-07-04T02:03:08;16.70;99.90
20341;DHT22;10328;50.042;8.238;2022-07-04T02:05:35;16.70;99.90
20341;DHT22;10328;50.042;8.238;2022-07-04T02:08:07;16.70;99.90
20341;DHT22;10328;50.042;8.238;2022-07-04T02:10:35;16.60;99.90
20341;DHT22;10328;50.042;8.238;2022-07-04T02:13:02;16.60;99.90
20341;DHT22;10328;50.042;8.238;2022-07-04T02:15:31;16.50;99.90
20341;DHT22;10328;50.042;8.238;2022-07-04T02:17:59;16.40;99.90
20341;DHT22;10328;50.042;8.238;2022-07-04T02:20:27;16.40;99.90
20341;DHT22;10328;50.042;8.238;2022-07-04T02:22:54;16.30;99.90
20341;DHT22;10328;50.042;8.238;2022-07-04T02:25:21;16.20;99.90
20341;DHT22;10328;50.042;8.238;2022-07-04T02:27:47;16.40;99.90
20341;DHT22;10328;50.042;8.238;2022-07-04T02:30:14;16.40;99.90
20341;DHT22;10328;50.042;8.238;2022-07-04T02:32:41;16.40;99.90
20341;DHT22;10328;50.042;8.238;2022-07-04T02:35:08;16.50;99.90
20341;DHT22;10328;50.042;8.238;2022-07-04T02:37:36;16.40;99.90
20341;DHT22;10328;50.042;8.238;2022-07-04T02:40:04;16.40;99.90
20341;DHT22;10328;50.042;8.238;2022-07-04T02:42:32;16.50;99.90
20341;DHT22;10328;50.042;8.238;2022-07-04T02:44:59;16.40;99.90
20341;DHT22;10328;50.042;8.238;2022-07-04T02:47:26;16.40;99.90
20341;DHT22;10328;50.042;8.238;2022-07-04T02:49:53;16.30;99.90
20341;DHT22;10328;50.042;8.238;2022-07-04T02:52:20;16.40;99.90
20341;DHT22;10328;50.042;8.238;2022-07-04T02:54:47;16.40;99.90
20341;DHT22;10328;50.042;8.238;2022-07-04T02:57:15;16.70;99.90
20341;DHT22;10328;50.042;8.238;2022-07-04T02:59:42;16.80;99.90
20341;DHT22;10328;50.042;8.238;2022-07-04T03:02:09;16.80;99.90
20341;DHT22;10328;50.042;8.238;2022-07-04T03:04:35;16.80;99.90
20341;DHT22;10328;50.042;8.238;2022-07-04T03:07:02;16.80;99.90
20341;DHT22;10328;50.042;8.238;2022-07-04T03:09:29;16.80;99.90
20341;DHT22;10328;50.042;8.238;2022-07-04T03:11:55;16.70;99.90
20341;DHT22;10328;50.042;8.238;2022-07-04T03:14:22;16.70;99.90
20341;DHT22;10328;50.042;8.238;2022-07-04T03:16:49;16.70;99.90
20341;DHT22;10328;50.042;8.238;2022-07-04T03:19:15;16.60;99.90
20341;DHT22;10328;50.042;8.238;2022-07-04T03:21:43;16.60;99.90
20341;DHT22;10328;50.042;8.238;2022-07-04T03:24:13;16.70;99.90
20341;DHT22;10328;50.042;8.238;2022-07-04T03:26:39;16.60;99.90
20341;DHT22;10328;50.042;8.238;2022-07-04T03:29:06;16.60;99.90
20341;DHT22;10328;50.042;8.238;2022-07-04T03:31:33;16.70;99.90
20341;DHT22;10328;50.042;8.238;2022-07-04T03:33:59;16.80;99.90
20341;DHT22;10328;50.042;8.238;2022-07-04T03:36:26;16.70;99.90
20341;DHT22;10328;50.042;8.238;2022-07-04T03:38:53;16.80;99.90
20341;DHT22;10328;50.042;8.238;2022-07-04T03:41:19;16.90;99.90
20341;DHT22;10328;50.042;8.238;2022-07-04T03:43:46;16.80;99.90
20341;DHT22;10328;50.042;8.238;2022-07-04T03:46:12;16.90;99.90
20341;DHT22;10328;50.042;8.238;2022-07-04T03:48:39;16.90;99.90
20341;DHT22;10328;50.042;8.238;2022-07-04T03:51:13;17.00;99.90
20341;DHT22;10328;50.042;8.238;2022-07-04T03:53:40;17.00;99.90
20341;DHT22;10328;50.042;8.238;2022-07-04T03:56:07;17.10;99.90
20341;DHT22;10328;50.042;8.238;2022-07-04T03:58:35;17.10;99.90
20341;DHT22;10328;50.042;8.238;2022-07-04T04:01:02;17.00;99.90
20341;DHT22;10328;50.042;8.238;2022-07-04T04:03:29;17.00;99.90
20341;DHT22;10328;50.042;8.238;2022-07-04T04:06:32;17.00;99.90
20341;DHT22;10328;50.042;8.238;2022-07-04T04:08:59;17.10;99.90
20341;DHT22;10328;50.042;8.238;2022-07-04T04:11:25;17.20;99.90
20341;DHT22;10328;50.042;8.238;2022-07-04T04:13:52;17.10;99.90
20341;DHT22;10328;50.042;8.238;2022-07-04T04:16:19;17.10;99.90
20341;DHT22;10328;50.042;8.238;2022-07-04T04:18:45;17.20;99.90
20341;DHT22;10328;50.042;8.238;2022-07-04T04:21:12;17.20;99.90
20341;DHT22;10328;50.042;8.238;2022-07-04T04:23:39;17.20;99.90
20341;DHT22;10328;50.042;8.238;2022-07-04T04:26:05;17.20;99.90
20341;DHT22;10328;50.042;8.238;2022-07-04T04:28:32;17.20;99.90
20341;DHT22;10328;50.042;8.238;2022-07-04T04:30:59;17.20;99.90
20341;DHT22;10328;50.042;8.238;2022-07-04T04:33:25;17.20;99.90
20341;DHT22;10328;50.042;8.238;2022-07-04T04:35:52;17.20;99.90
20341;DHT22;10328;50.042;8.238;2022-07-04T04:38:23;17.10;99.90
20341;DHT22;10328;50.042;8.238;2022-07-04T04:40:53;17.30;99.90
20341;DHT22;10328;50.042;8.238;2022-07-04T04:43:20;17.30;99.90
20341;DHT22;10328;50.042;8.238;2022-07-04T04:45:46;17.30;99.90
20341;DHT22;10328;50.042;8.238;2022-07-04T04:48:13;17.40;99.90
20341;DHT22;10328;50.042;8.238;2022-07-04T04:50:41;17.40;99.90
20341;DHT22;10328;50.042;8.238;2022-07-04T04:53:07;17.50;99.90
20341;DHT22;10328;50.042;8.238;2022-07-04T04:55:34;17.40;99.90
20341;DHT22;10328;50.042;8.238;2022-07-04T04:58:01;17.50;99.90
20341;DHT22;10328;50.042;8.238;2022-07-04T05:00:27;17.70;99.90
20341;DHT22;10328;50.042;8.238;2022-07-04T05:02:54;17.80;99.90
20341;DHT22;10328;50.042;8.238;2022-07-04T05:05:21;17.80;99.90
20341;DHT22;10328;50.042;8.238;2022-07-04T05:07:47;17.80;99.90
20341;DHT22;10328;50.042;8.238;2022-07-04T05:10:14;17.90;99.90
20341;DHT22;10328;50.042;8.238;2022-07-04T05:12:42;17.90;99.90
20341;DHT22;10328;50.042;8.238;2022-07-04T05:15:10;18.00;99.90
20341;DHT22;10328;50.042;8.238;2022-07-04T05:17:36;18.10;99.90
20341;DHT22;10328;50.042;8.238;2022-07-04T05:20:04;18.10;99.90
20341;DHT22;10328;50.042;8.238;2022-07-04T05:22:30;18.20;99.90
20341;DHT22;10328;50.042;8.238;2022-07-04T05:24:57;18.20;99.90
20341;DHT22;10328;50.042;8.238;2022-07-04T05:27:24;18.30;99.90
20341;DHT22;10328;50.042;8.238;2022-07-04T05:29:53;18.40;99.90
20341;DHT22;10328;50.042;8.238;2022-07-04T05:32:20;18.50;99.90
20341;DHT22;10328;50.042;8.238;2022-07-04T05:34:47;18.80;99.90
20341;DHT22;10328;50.042;8.238;2022-07-04T05:37:14;19.10;99.90
20341;DHT22;10328;50.042;8.238;2022-07-04T05:39:41;19.20;99.90
20341;DHT22;10328;50.042;8.238;2022-07-04T05:42:08;19.10;99.90
20341;DHT22;10328;50.042;8.238;2022-07-04T05:44:34;19.00;99.90
20341;DHT22;10328;50.042;8.238;2022-07-04T05:47:01;18.90;99.90
20341;DHT22;10328;50.042;8.238;2022-07-04T05:49:28;19.00;99.90
20341;DHT22;10328;50.042;8.238;2022-07-04T05:51:55;19.00;99.90
20341;DHT22;10328;50.042;8.238;2022-07-04T05:54:21;19.00;99.90
20341;DHT22;10328;50.042;8.238;2022-07-04T05:56:48;19.20;99.90
20341;DHT22;10328;50.042;8.238;2022-07-04T05:59:15;19.30;99.90
20341;DHT22;10328;50.042;8.238;2022-07-04T06:01:41;19.40;99.90
20341;DHT22;10328;50.042;8.238;2022-07-04T06:04:09;19.50;99.90
20341;DHT22;10328;50.042;8.238;2022-07-04T06:06:35;19.70;99.90
20341;DHT22;10328;50.042;8.238;2022-07-04T06:09:02;19.80;99.90
20341;DHT22;10328;50.042;8.238;2022-07-04T06:11:29;19.80;99.90
20341;DHT22;10328;50.042;8.238;2022-07-04T06:13:56;19.90;99.90
20341;DHT22;10328;50.042;8.238;2022-07-04T06:16:23;19.90;99.90
20341;DHT22;10328;50.042;8.238;2022-07-04T06:18:50;19.90;99.90
20341;DHT22;10328;50.042;8.238;2022-07-04T06:21:16;19.80;99.90
20341;DHT22;10328;50.042;8.238;2022-07-04T06:23:43;19.80;99.90
20341;DHT22;10328;50.042;8.238;2022-07-04T06:26:10;20.10;99.90
20341;DHT22;10328;50.042;8.238;2022-07-04T06:28:37;20.40;99.90
20341;DHT22;10328;50.042;8.238;2022-07-04T06:31:13;20.40;99.90
20341;DHT22;10328;50.042;8.238;2022-07-04T06:33:41;20.50;99.90
20341;DHT22;10328;50.042;8.238;2022-07-04T06:36:26;20.40;99.90
20341;DHT22;10328;50.042;8.238;2022-07-04T06:38:53;20.40;99.90
20341;DHT22;10328;50.042;8.238;2022-07-04T06:41:19;20.40;99.90
20341;DHT22;10328;50.042;8.238;2022-07-04T06:43:46;20.40;99.90
20341;DHT22;10328;50.042;8.238;2022-07-04T06:46:12;20.40;99.90
20341;DHT22;10328;50.042;8.238;2022-07-04T06:48:39;20.50;99.90
20341;DHT22;10328;50.042;8.238;2022-07-04T06:51:06;20.60;99.90
20341;DHT22;10328;50.042;8.238;2022-07-04T06:53:33;20.60;99.90
20341;DHT22;10328;50.042;8.238;2022-07-04T06:56:00;20.60;99.90
20341;DHT22;10328;50.042;8.238;2022-07-04T06:58:26;20.60;99.90
20341;DHT22;10328;50.042;8.238;2022-07-04T07:00:53;20.80;99.90
20341;DHT22;10328;50.042;8.238;2022-07-04T07:03:20;20.90;99.90
20341;DHT22;10328;50.042;8.238;2022-07-04T07:05:47;21.10;99.90
20341;DHT22;10328;50.042;8.238;2022-07-04T07:08:29;21.10;99.90
20341;DHT22;10328;50.042;8.238;2022-07-04T07:10:57;21.40;99.90
20341;DHT22;10328;50.042;8.238;2022-07-04T07:13:24;21.90;99.90
20341;DHT22;10328;50.042;8.238;2022-07-04T07:15:51;22.90;99.90
20341;DHT22;10328;50.042;8.238;2022-07-04T07:18:18;23.50;99.90
20341;DHT22;10328;50.042;8.238;2022-07-04T07:20:44;24.40;99.90
20341;DHT22;10328;50.042;8.238;2022-07-04T07:23:11;25.10;99.90
20341;DHT22;10328;50.042;8.238;2022-07-04T07:25:38;25.40;99.90
20341;DHT22;10328;50.042;8.238;2022-07-04T07:28:04;25.70;99.90
20341;DHT22;10328;50.042;8.238;2022-07-04T07:30:31;26.10;99.90
20341;DHT22;10328;50.042;8.238;2022-07-04T07:32:58;26.10;99.90
20341;DHT22;10328;50.042;8.238;2022-07-04T07:35:24;26.40;99.90
20341;DHT22;10328;50.042;8.238;2022-07-04T07:37:51;26.70;99.90
20341;DHT22;10328;50.042;8.238;2022-07-04T07:40:18;26.40;99.90
20341;DHT22;10328;50.042;8.238;2022-07-04T07:42:44;26.80;99.90
20341;DHT22;10328;50.042;8.238;2022-07-04T07:45:11;26.70;99.90
20341;DHT22;10328;50.042;8.238;2022-07-04T07:47:38;26.50;99.90
20341;DHT22;10328;50.042;8.238;2022-07-04T07:50:05;26.40;99.90
20341;DHT22;10328;50.042;8.238;2022-07-04T07:52:32;26.20;99.90
20341;DHT22;10328;50.042;8.238;2022-07-04T07:54:59;25.70;99.90
20341;DHT22;10328;50.042;8.238;2022-07-04T07:57:28;25.70;99.90
20341;DHT22;10328;50.042;8.238;2022-07-04T07:59:55;25.90;99.90
20341;DHT22;10328;50.042;8.238;2022-07-04T08:02:22;26.00;99.90
20341;DHT22;10328;50.042;8.238;2022-07-04T08:05:10;26.10;99.90
20341;DHT22;10328;50.042;8.238;2022-07-04T08:07:37;25.90;99.90
20341;DHT22;10328;50.042;8.238;2022-07-04T08:10:05;26.00;99.90
20341;DHT22;10328;50.042;8.238;2022-07-04T08:12:32;26.00;99.90
20341;DHT22;10328;50.042;8.238;2022-07-04T08:14:58;25.60;99.90
20341;DHT22;10328;50.042;8.238;2022-07-04T08:17:32;25.30;99.90
20341;DHT22;10328;50.042;8.238;2022-07-04T08:19:59;24.80;99.90
20341;DHT22;10328;50.042;8.238;2022-07-04T08:22:26;24.60;99.90
20341;DHT22;10328;50.042;8.238;2022-07-04T08:24:53;24.60;99.90
20341;DHT22;10328;50.042;8.238;2022-07-04T08:27:19;24.40;99.90
20341;DHT22;10328;50.042;8.238;2022-07-04T08:29:57;24.00;99.90
20341;DHT22;10328;50.042;8.238;2022-07-04T08:32:24;24.20;99.90
20341;DHT22;10328;50.042;8.238;2022-07-04T08:34:51;24.10;99.90
20341;DHT22;10328;50.042;8.238;2022-07-04T08:37:17;24.10;99.90
20341;DHT22;10328;50.042;8.238;2022-07-04T08:39:44;24.30;99.90
20341;DHT22;10328;50.042;8.238;2022-07-04T08:42:19;24.20;99.90
20341;DHT22;10328;50.042;8.238;2022-07-04T08:44:53;24.20;99.90
20341;DHT22;10328;50.042;8.238;2022-07-04T08:47:23;24.30;99.90
20341;DHT22;10328;50.042;8.238;2022-07-04T08:50:09;24.60;99.90
20341;DHT22;10328;50.042;8.238;2022-07-04T08:52:41;24.80;99.90
20341;DHT22;10328;50.042;8.238;2022-07-04T08:55:10;24.80;99.90
20341;DHT22;10328;50.042;8.238;2022-07-04T08:57:57;24.60;99.90
20341;DHT22;10328;50.042;8.238;2022-07-04T09:00:42;24.40;99.90
20341;DHT22;10328;50.042;8.238;2022-07-04T09:03:10;24.60;99.90
20341;DHT22;10328;50.042;8.238;2022-07-04T09:05:37;24.50;99.90
20341;DHT22;10328;50.042;8.238;2022-07-04T09:08:04;24.80;99.90
20341;DHT22;10328;50.042;8.238;2022-07-04T09:10:31;25.00;99.90
20341;DHT22;10328;50.042;8.238;2022-07-04T09:13:00;25.20;99.90
20341;DHT22;10328;50.042;8.238;2022-07-04T09:15:38;25.30;99.90
20341;DHT22;10328;50.042;8.238;2022-07-04T09:18:05;25.30;99.90
20341;DHT22;10328;50.042;8.238;2022-07-04T09:20:33;25.60;99.90
20341;DHT22;10328;50.042;8.238;2022-07-04T09:23:00;25.70;99.90
20341;DHT22;10328;50.042;8.238;2022-07-04T09:25:27;25.80;99.90
20341;DHT22;10328;50.042;8.238;2022-07-04T09:27:56;25.80;99.90
20341;DHT22;10328;50.042;8.238;2022-07-04T09:30:25;25.80;99.90
20341;DHT22;10328;50.042;8.238;2022-07-04T09:32:54;25.90;99.90
20341;DHT22;10328;50.042;8.238;2022-07-04T09:35:28;25.60;99.90
20341;DHT22;10328;50.042;8.238;2022-07-04T09:37:57;25.70;99.90
20341;DHT22;10328;50.042;8.238;2022-07-04T09:40:38;25.80;99.90
20341;DHT22;10328;50.042;8.238;2022-07-04T09:43:24;26.00;99.90
20341;DHT22;10328;50.042;8.238;2022-07-04T09:46:00;26.10;99.90
20341;DHT22;10328;50.042;8.238;2022-07-04T09:48:48;26.10;99.90
20341;DHT22;10328;50.042;8.238;2022-07-04T09:51:19;26.00;99.90
20341;DHT22;10328;50.042;8.238;2022-07-04T09:56:51;26.40;99.90
20341;DHT22;10328;50.042;8.238;2022-07-04T09:59:19;26.60;99.90
20341;DHT22;10328;50.042;8.238;2022-07-04T10:01:46;26.50;99.90
20341;DHT22;10328;50.042;8.238;2022-07-04T10:04:13;26.60;99.90
20341;DHT22;10328;50.042;8.238;2022-07-04T10:06:42;26.70;99.90
20341;DHT22;10328;50.042;8.238;2022-07-04T10:09:10;26.70;99.90
20341;DHT22;10328;50.042;8.238;2022-07-04T10:11:38;26.60;99.90
20341;DHT22;10328;50.042;8.238;2022-07-04T10:14:07;26.20;99.90
20341;DHT22;10328;50.042;8.238;2022-07-04T10:16:35;26.30;99.90
20341;DHT22;10328;50.042;8.238;2022-07-04T10:19:03;26.40;99.90
20341;DHT22;10328;50.042;8.238;2022-07-04T10:21:31;26.50;99.90
20341;DHT22;10328;50.042;8.238;2022-07-04T10:23:58;26.70;99.60
20341;DHT22;10328;50.042;8.238;2022-07-04T10:26:27;26.80;99.90
20341;DHT22;10328;50.042;8.238;2022-07-04T10:28:54;26.60;99.10
20341;DHT22;10328;50.042;8.238;2022-07-04T10:31:23;26.70;99.10
20341;DHT22;10328;50.042;8.238;2022-07-04T10:33:51;26.80;99.40
20341;DHT22;10328;50.042;8.238;2022-07-04T10:36:21;26.90;99.70
20341;DHT22;10328;50.042;8.238;2022-07-04T10:38:52;27.10;99.30
20341;DHT22;10328;50.042;8.238;2022-07-04T10:41:21;26.80;99.50
20341;DHT22;10328;50.042;8.238;2022-07-04T10:44:05;26.90;98.60
20341;DHT22;10328;50.042;8.238;2022-07-04T10:46:51;26.80;98.90
20341;DHT22;10328;50.042;8.238;2022-07-04T10:49:20;26.60;98.40
20341;DHT22;10328;50.042;8.238;2022-07-04T10:51:51;26.40;99.50
20341;DHT22;10328;50.042;8.238;2022-07-04T10:57:09;26.40;98.00
20341;DHT22;10328;50.042;8.238;2022-07-04T10:59:37;26.50;98.70
20341;DHT22;10328;50.042;8.238;2022-07-04T11:04:57;26.40;98.20
20341;DHT22;10328;50.042;8.238;2022-07-04T11:20:26;27.50;96.20
20341;DHT22;10328;50.042;8.238;2022-07-04T11:23:03;27.60;96.30
20341;DHT22;10328;50.042;8.238;2022-07-04T11:25:30;27.80;96.20
20341;DHT22;10328;50.042;8.238;2022-07-04T11:27:56;28.00;94.60
20341;DHT22;10328;50.042;8.238;2022-07-04T11:30:23;28.00;95.40
20341;DHT22;10328;50.042;8.238;2022-07-04T11:32:50;28.00;94.70
20341;DHT22;10328;50.042;8.238;2022-07-04T11:35:20;28.20;95.30
20341;DHT22;10328;50.042;8.238;2022-07-04T11:37:56;28.40;95.90
20341;DHT22;10328;50.042;8.238;2022-07-04T11:40:23;28.50;95.60
20341;DHT22;10328;50.042;8.238;2022-07-04T11:43:09;28.40;96.10
20341;DHT22;10328;50.042;8.238;2022-07-04T11:45:54;28.40;96.70
20341;DHT22;10328;50.042;8.238;2022-07-04T11:48:25;27.90;96.40
20341;DHT22;10328;50.042;8.238;2022-07-04T11:50:53;27.80;96.80
20341;DHT22;10328;50.042;8.238;2022-07-04T11:53:20;27.90;96.10
20341;DHT22;10328;50.042;8.238;2022-07-04T11:55:53;27.80;96.00
20341;DHT22;10328;50.042;8.238;2022-07-04T11:58:25;27.70;95.40
20341;DHT22;10328;50.042;8.238;2022-07-04T12:01:04;27.80;95.70
20341;DHT22;10328;50.042;8.238;2022-07-04T12:03:32;28.00;95.90
20341;DHT22;10328;50.042;8.238;2022-07-04T12:06:01;28.10;95.90
20341;DHT22;10328;50.042;8.238;2022-07-04T12:08:28;28.20;96.10
20341;DHT22;10328;50.042;8.238;2022-07-04T12:10:55;28.00;96.00
20341;DHT22;10328;50.042;8.238;2022-07-04T12:13:21;27.70;96.10
20341;DHT22;10328;50.042;8.238;2022-07-04T12:15:49;27.50;95.70
20341;DHT22;10328;50.042;8.238;2022-07-04T12:20:48;27.40;95.70
20341;DHT22;10328;50.042;8.238;2022-07-04T12:23:15;27.20;95.00
20341;DHT22;10328;50.042;8.238;2022-07-04T12:25:45;27.10;95.00
20341;DHT22;10328;50.042;8.238;2022-07-04T12:28:14;27.20;95.30
20341;DHT22;10328;50.042;8.238;2022-07-04T12:30:57;27.10;94.70
20341;DHT22;10328;50.042;8.238;2022-07-04T12:33:28;26.90;95.00
20341;DHT22;10328;50.042;8.238;2022-07-04T12:36:00;27.10;95.30
20341;DHT22;10328;50.042;8.238;2022-07-04T12:43:48;27.60;94.50
20341;DHT22;10328;50.042;8.238;2022-07-04T12:46:33;27.70;95.60
20341;DHT22;10328;50.042;8.238;2022-07-04T12:49:20;27.70;95.00
20341;DHT22;10328;50.042;8.238;2022-07-04T12:51:47;27.70;94.40
20341;DHT22;10328;50.042;8.238;2022-07-04T12:54:14;27.80;94.20
20341;DHT22;10328;50.042;8.238;2022-07-04T12:56:46;27.90;94.30
20341;DHT22;10328;50.042;8.238;2022-07-04T12:59:15;28.00;94.20
20341;DHT22;10328;50.042;8.238;2022-07-04T13:01:44;27.80;93.40
20341;DHT22;10328;50.042;8.238;2022-07-04T13:04:12;27.30;93.30
20341;DHT22;10328;50.042;8.238;2022-07-04T13:06:39;27.40;93.10
20341;DHT22;10328;50.042;8.238;2022-07-04T13:09:06;27.30;92.90
20341;DHT22;10328;50.042;8.238;2022-07-04T13:11:36;27.40;93.30
20341;DHT22;10328;50.042;8.238;2022-07-04T13:14:22;27.50;93.70
20341;DHT22;10328;50.042;8.238;2022-07-04T13:16:48;27.60;93.80
20341;DHT22;10328;50.042;8.238;2022-07-04T13:19:15;27.70;93.90
20341;DHT22;10328;50.042;8.238;2022-07-04T13:21:44;27.70;93.00
20341;DHT22;10328;50.042;8.238;2022-07-04T13:24:10;27.80;94.00
20341;DHT22;10328;50.042;8.238;2022-07-04T13:26:37;27.90;93.60
20341;DHT22;10328;50.042;8.238;2022-07-04T13:29:04;28.00;94.10
20341;DHT22;10328;50.042;8.238;2022-07-04T13:31:37;28.00;93.10
20341;DHT22;10328;50.042;8.238;2022-07-04T13:34:04;28.10;93.60
20341;DHT22;10328;50.042;8.238;2022-07-04T13:36:31;28.20;93.10
20341;DHT22;10328;50.042;8.238;2022-07-04T13:38:58;28.40;93.60
20341;DHT22;10328;50.042;8.238;2022-07-04T13:41:32;28.50;93.00
20341;DHT22;10328;50.042;8.238;2022-07-04T13:44:00;28.60;92.60
20341;DHT22;10328;50.042;8.238;2022-07-04T13:46:27;28.70;92.40
20341;DHT22;10328;50.042;8.238;2022-07-04T13:48:54;28.70;92.30
20341;DHT22;10328;50.042;8.238;2022-07-04T13:51:21;28.60;92.50
20341;DHT22;10328;50.042;8.238;2022-07-04T13:53:48;28.60;92.70
20341;DHT22;10328;50.042;8.238;2022-07-04T13:56:14;28.50;92.40
20341;DHT22;10328;50.042;8.238;2022-07-04T13:58:45;28.50;91.70
20341;DHT22;10328;50.042;8.238;2022-07-04T14:01:13;28.30;92.60
20341;DHT22;10328;50.042;8.238;2022-07-04T14:03:42;28.40;92.60
20341;DHT22;10328;50.042;8.238;2022-07-04T14:06:09;28.40;93.00
20341;DHT22;10328;50.042;8.238;2022-07-04T14:08:36;28.50;92.90
20341;DHT22;10328;50.042;8.238;2022-07-04T14:11:03;28.40;92.90
20341;DHT22;10328;50.042;8.238;2022-07-04T14:13:30;28.50;92.60
20341;DHT22;10328;50.042;8.238;2022-07-04T14:15:56;28.60;92.60
20341;DHT22;10328;50.042;8.238;2022-07-04T14:18:23;28.70;91.70
20341;DHT22;10328;50.042;8.238;2022-07-04T14:20:50;28.80;92.50
20341;DHT22;10328;50.042;8.238;2022-07-04T14:23:17;28.80;91.80
20341;DHT22;10328;50.042;8.238;2022-07-04T14:26:03;28.70;92.60
20341;DHT22;10328;50.042;8.238;2022-07-04T14:28:31;28.60;92.50
20341;DHT22;10328;50.042;8.238;2022-07-04T14:30:58;28.40;92.50
20341;DHT22;10328;50.042;8.238;2022-07-04T14:33:25;28.30;92.40
20341;DHT22;10328;50.042;8.238;2022-07-04T14:35:52;28.10;91.40
20341;DHT22;10328;50.042;8.238;2022-07-04T14:38:19;27.90;92.10
20341;DHT22;10328;50.042;8.238;2022-07-04T14:40:46;28.00;92.20
20341;DHT22;10328;50.042;8.238;2022-07-04T14:43:16;28.00;91.80
20341;DHT22;10328;50.042;8.238;2022-07-04T14:45:46;28.10;91.30
20341;DHT22;10328;50.042;8.238;2022-07-04T14:48:14;28.30;91.80
20341;DHT22;10328;50.042;8.238;2022-07-04T14:50:41;28.50;90.50
20341;DHT22;10328;50.042;8.238;2022-07-04T14:53:08;28.60;90.60
20341;DHT22;10328;50.042;8.238;2022-07-04T14:55:37;28.80;90.30
20341;DHT22;10328;50.042;8.238;2022-07-04T14:58:03;29.00;90.40
20341;DHT22;10328;50.042;8.238;2022-07-04T15:00:30;29.10;91.20
20341;DHT22;10328;50.042;8.238;2022-07-04T15:02:57;29.00;90.50
20341;DHT22;10328;50.042;8.238;2022-07-04T15:05:24;28.90;90.10
20341;DHT22;10328;50.042;8.238;2022-07-04T15:07:51;28.90;90.60
20341;DHT22;10328;50.042;8.238;2022-07-04T15:10:20;28.60;89.70
20341;DHT22;10328;50.042;8.238;2022-07-04T15:13:07;28.40;91.00
20341;DHT22;10328;50.042;8.238;2022-07-04T15:15:34;28.10;90.60
20341;DHT22;10328;50.042;8.238;2022-07-04T15:18:10;28.20;90.50
20341;DHT22;10328;50.042;8.238;2022-07-04T15:20:38;28.30;89.80
20341;DHT22;10328;50.042;8.238;2022-07-04T15:23:23;28.50;90.40
20341;DHT22;10328;50.042;8.238;2022-07-04T15:26:09;28.30;91.20
20341;DHT22;10328;50.042;8.238;2022-07-04T15:28:36;28.20;91.30
20341;DHT22;10328;50.042;8.238;2022-07-04T15:31:02;28.00;91.30
20341;DHT22;10328;50.042;8.238;2022-07-04T15:33:29;28.00;91.50
20341;DHT22;10328;50.042;8.238;2022-07-04T15:35:57;27.80;91.10
20341;DHT22;10328;50.042;8.238;2022-07-04T15:38:24;27.80;91.50
20341;DHT22;10328;50.042;8.238;2022-07-04T15:40:51;27.80;91.10
20341;DHT22;10328;50.042;8.238;2022-07-04T15:43:17;27.70;91.40
20341;DHT22;10328;50.042;8.238;2022-07-04T15:45:44;27.70;91.10
20341;DHT22;10328;50.042;8.238;2022-07-04T15:48:11;27.90;91.60
20341;DHT22;10328;50.042;8.238;2022-07-04T15:50:38;28.00;92.50
20341;DHT22;10328;50.042;8.238;2022-07-04T15:53:04;28.10;91.30
20341;DHT22;10328;50.042;8.238;2022-07-04T15:55:31;28.20;91.20
20341;DHT22;10328;50.042;8.238;2022-07-04T15:57:58;28.20;92.00
20341;DHT22;10328;50.042;8.238;2022-07-04T16:00:24;28.00;91.90
20341;DHT22;10328;50.042;8.238;2022-07-04T16:02:51;27.90;91.80
20341;DHT22;10328;50.042;8.238;2022-07-04T16:05:18;27.90;92.00
20341;DHT22;10328;50.042;8.238;2022-07-04T16:07:45;27.70;92.30